Ecokeeper — SVTY — position and weather

sailwx.info

Track history (hours):
 
Tides and Currents Weather Stations Pressure Air Temp Water Temp Dewpoint Dewpoint Depression Visibility Wind Speed Wind Dir Waves Ship Positions

Ecokeeper

Last reported at 2015-Jul-05 22:33 UTC. Time now 2015-Jul-05 23:16 UTC.
Position N 38°02' E 023°36'.

Length 90 m; draft 5 m.

Type: Tanker. MMSI: 240689000.

Date/timePositionNaut miles runAvg speedWind from/ knotsBaromVisibWave heightAir tempDewpointWater temp
2015-Jul-05 22:33N 38°02' E 023°36'0 0.0
2015-Jul-05 21:27N 38°02' E 023°36'0 0.0
2015-Jul-05 20:31N 38°02' E 023°36'0 0.0
2015-Jul-05 19:31N 38°02' E 023°36'0 0.0
2015-Jul-05 18:33N 38°02' E 023°36'0 0.0
2015-Jul-05 17:34N 38°02' E 023°36'0 0.0
2015-Jul-05 16:33N 38°02' E 023°36'0 0.0
2015-Jul-05 15:33N 38°02' E 023°36'0 0.0
2015-Jul-05 14:32N 38°02' E 023°36'0 0.0
2015-Jul-05 13:33N 38°02' E 023°36'0 0.0
2015-Jul-05 12:32N 38°02' E 023°36'0 0.0
2015-Jul-05 11:31N 38°02' E 023°36'0 0.0
2015-Jul-05 10:34N 38°02' E 023°36'0 0.0
2015-Jul-05 09:32N 38°02' E 023°36'0 0.0
2015-Jul-05 08:32N 38°02' E 023°36'0 0.0
2015-Jul-05 07:33N 38°02' E 023°36'0 0.2
2015-Jul-05 06:33N 38°02' E 023°35'5 4.9
2015-Jul-05 05:34N 37°57' E 023°34'0 0.0
2015-Jul-03 09:33N 37°57' E 023°34'0 0.0
2015-Jul-02 23:24N 37°57' E 023°34'2 2.8
2015-Jul-02 22:33N 37°57' E 023°37'0 0.0
2015-Jul-02 21:33N 37°57' E 023°37'0 0.0
2015-Jul-02 20:33N 37°57' E 023°37'0 0.0
2015-Jul-02 19:33N 37°57' E 023°37'0 0.0
2015-Jul-02 18:33N 37°57' E 023°37'0 0.0
2015-Jul-02 17:33N 37°57' E 023°37'0 0.0
2015-Jul-02 16:33N 37°57' E 023°37'0 0.0
2015-Jul-02 15:33N 37°57' E 023°37'0 0.0
2015-Jul-02 14:33N 37°57' E 023°37'0 0.0
2015-Jul-02 13:33N 37°57' E 023°37'0 0.0
2015-Jul-02 12:33N 37°57' E 023°37'0 0.0
2015-Jul-02 10:22N 37°57' E 023°37'1 1.0
2015-Jul-02 09:33N 37°57' E 023°36'2 1.6
2015-Jul-02 08:33N 37°57' E 023°34'0 0.0
2015-Jul-02 07:32N 37°57' E 023°34'0 0.0
2015-Jul-02 06:33N 37°57' E 023°34'0 0.0
2015-Jul-02 05:31N 37°57' E 023°34'0 0.0
2015-Jul-02 04:33N 37°57' E 023°34'0 0.0
2015-Jul-02 03:32N 37°57' E 023°34'0 0.0
2015-Jul-02 02:33N 37°57' E 023°34'0 0.0
2015-Jul-02 01:33N 37°57' E 023°34'0 0.0
2015-Jul-02 00:33N 37°57' E 023°34'0 0.0
2015-Jul-01 23:33N 37°57' E 023°34'0 0.3
2015-Jul-01 22:33N 37°57' E 023°34'6 5.9
2015-Jul-01 21:33N 37°52' E 023°31'1 0.7
2015-Jul-01 20:33N 37°52' E 023°30'0 0.0
2015-Jul-01 19:33N 37°52' E 023°30'0 0.0
2015-Jul-01 18:33N 37°52' E 023°30'0 0.1
2015-Jul-01 17:33N 37°52' E 023°30'0 0.0
2015-Jul-01 15:33N 37°52' E 023°30'0 0.1
2015-Jul-01 14:33N 37°52' E 023°30'0 0.1
2015-Jul-01 13:33N 37°52' E 023°30'0 0.0
2015-Jul-01 12:33N 37°52' E 023°30'0 0.0
2015-Jul-01 11:33N 37°52' E 023°30'0 0.0
2015-Jul-01 10:33N 37°52' E 023°30'0 0.1
2015-Jul-01 09:33N 37°52' E 023°30'0 0.0
2015-Jul-01 08:33N 37°52' E 023°30'0 0.0
2015-Jul-01 07:33N 37°52' E 023°30'0 0.1
2015-Jul-01 06:33N 37°52' E 023°30'4 3.8
2015-Jul-01 05:33N 37°55' E 023°33'  
Track history (hours):
 
Tides and Currents Weather Stations Pressure Air Temp Water Temp Dewpoint Dewpoint Depression Visibility Wind Speed Wind Dir Waves Ship Positions

Ecokeeper

Last reported at 2015-Jul-05 22:33 UTC. Time now 2015-Jul-05 23:16 UTC.
Position N 38°02' E 023°36'.

Length 90 m; draft 5 m.

Type: Tanker. MMSI: 240689000.

Date/timePositionNaut miles runAvg speedWind from/ knotsBaromVisibWave heightAir tempDewpointWater temp
2015-Jul-05 22:33N 38°02' E 023°36'0 0.0
2015-Jul-05 21:27N 38°02' E 023°36'0 0.0
2015-Jul-05 20:31N 38°02' E 023°36'0 0.0
2015-Jul-05 19:31N 38°02' E 023°36'0 0.0
2015-Jul-05 18:33N 38°02' E 023°36'0 0.0
2015-Jul-05 17:34N 38°02' E 023°36'0 0.0
2015-Jul-05 16:33N 38°02' E 023°36'0 0.0
2015-Jul-05 15:33N 38°02' E 023°36'0 0.0
2015-Jul-05 14:32N 38°02' E 023°36'0 0.0
2015-Jul-05 13:33N 38°02' E 023°36'0 0.0
2015-Jul-05 12:32N 38°02' E 023°36'0 0.0
2015-Jul-05 11:31N 38°02' E 023°36'0 0.0
2015-Jul-05 10:34N 38°02' E 023°36'0 0.0
2015-Jul-05 09:32N 38°02' E 023°36'0 0.0
2015-Jul-05 08:32N 38°02' E 023°36'0 0.0
2015-Jul-05 07:33N 38°02' E 023°36'0 0.2
2015-Jul-05 06:33N 38°02' E 023°35'5 4.9
2015-Jul-05 05:34N 37°57' E 023°34'0 0.0
2015-Jul-03 09:33N 37°57' E 023°34'0 0.0
2015-Jul-02 23:24N 37°57' E 023°34'2 2.8
2015-Jul-02 22:33N 37°57' E 023°37'0 0.0
2015-Jul-02 21:33N 37°57' E 023°37'0 0.0
2015-Jul-02 20:33N 37°57' E 023°37'0 0.0
2015-Jul-02 19:33N 37°57' E 023°37'0 0.0
2015-Jul-02 18:33N 37°57' E 023°37'0 0.0
2015-Jul-02 17:33N 37°57' E 023°37'0 0.0
2015-Jul-02 16:33N 37°57' E 023°37'0 0.0
2015-Jul-02 15:33N 37°57' E 023°37'0 0.0
2015-Jul-02 14:33N 37°57' E 023°37'0 0.0
2015-Jul-02 13:33N 37°57' E 023°37'0 0.0
2015-Jul-02 12:33N 37°57' E 023°37'0 0.0
2015-Jul-02 10:22N 37°57' E 023°37'1 1.0
2015-Jul-02 09:33N 37°57' E 023°36'2 1.6
2015-Jul-02 08:33N 37°57' E 023°34'0 0.0
2015-Jul-02 07:32N 37°57' E 023°34'0 0.0
2015-Jul-02 06:33N 37°57' E 023°34'0 0.0
2015-Jul-02 05:31N 37°57' E 023°34'0 0.0
2015-Jul-02 04:33N 37°57' E 023°34'0 0.0
2015-Jul-02 03:32N 37°57' E 023°34'0 0.0
2015-Jul-02 02:33N 37°57' E 023°34'0 0.0
2015-Jul-02 01:33N 37°57' E 023°34'0 0.0
2015-Jul-02 00:33N 37°57' E 023°34'0 0.0
2015-Jul-01 23:33N 37°57' E 023°34'0 0.3
2015-Jul-01 22:33N 37°57' E 023°34'6 5.9
2015-Jul-01 21:33N 37°52' E 023°31'1 0.7
2015-Jul-01 20:33N 37°52' E 023°30'0 0.0
2015-Jul-01 19:33N 37°52' E 023°30'0 0.0
2015-Jul-01 18:33N 37°52' E 023°30'0 0.1
2015-Jul-01 17:33N 37°52' E 023°30'0 0.0
2015-Jul-01 15:33N 37°52' E 023°30'0 0.1
2015-Jul-01 14:33N 37°52' E 023°30'0 0.1
2015-Jul-01 13:33N 37°52' E 023°30'0 0.0
2015-Jul-01 12:33N 37°52' E 023°30'0 0.0
2015-Jul-01 11:33N 37°52' E 023°30'0 0.0
2015-Jul-01 10:33N 37°52' E 023°30'0 0.1
2015-Jul-01 09:33N 37°52' E 023°30'0 0.0
2015-Jul-01 08:33N 37°52' E 023°30'0 0.0
2015-Jul-01 07:33N 37°52' E 023°30'0 0.1
2015-Jul-01 06:33N 37°52' E 023°30'4 3.8
2015-Jul-01 05:33N 37°55' E 023°33'  

Dump ship's entire track history